createdAt,value
2018-04-13T03:33:57.544Z,61.23
2018-04-13T03:34:57.491Z,61.16
2018-04-13T03:36:50.930Z,63.67
2018-04-13T03:37:50.878Z,67.71
2018-04-13T03:39:44.285Z,72.45
2018-04-13T03:40:44.270Z,74.57
2018-04-13T03:42:37.709Z,76.59
2018-04-13T03:43:37.663Z,77.36
2018-04-13T04:13:11.332Z,60.56
2018-04-13T04:14:11.302Z,60.82
2018-04-13T04:16:05.697Z,61.30
2018-04-13T04:17:05.787Z,61.58
2018-04-13T04:19:00.197Z,61.49
2018-04-13T04:20:00.054Z,61.87
2018-04-13T04:22:00.838Z,61.49
2018-04-13T04:23:00.784Z,61.58
2018-04-13T04:24:54.226Z,61.68
2018-04-13T04:25:54.237Z,61.40
2018-04-13T04:27:48.684Z,61.40
2018-04-13T04:28:48.628Z,61.40
2018-04-13T04:30:42.091Z,61.11
2018-04-13T04:31:42.079Z,61.01
2018-04-13T04:33:35.536Z,61.11
2018-04-13T04:34:35.475Z,61.20
2018-04-13T04:36:28.927Z,60.53
2018-04-13T04:37:28.983Z,60.72
2018-04-13T04:39:23.287Z,61.20
2018-04-13T04:40:23.241Z,61.14
2018-04-13T04:42:16.687Z,65.08
2018-04-13T04:43:16.695Z,67.38
2018-04-13T04:45:10.040Z,71.36
2018-04-13T04:46:10.051Z,72.52
2018-04-13T05:11:22.864Z,60.85
2018-04-13T05:12:22.815Z,61.23
2018-04-13T05:14:17.248Z,61.11
2018-04-13T05:15:17.195Z,60.85
2018-04-13T05:17:10.589Z,61.30
2018-04-13T05:18:10.585Z,61.49
2018-04-13T05:20:04.021Z,61.40
2018-04-13T05:21:03.974Z,61.30
2018-04-13T05:22:57.418Z,61.33
2018-04-13T05:23:57.370Z,61.49
2018-04-13T05:25:50.763Z,61.43
2018-04-13T05:26:50.766Z,61.43
2018-04-13T05:28:44.211Z,61.52
2018-04-13T05:29:44.166Z,61.11
2018-04-13T05:31:38.559Z,61.04
2018-04-13T05:32:38.561Z,61.04
2018-04-13T05:34:32.012Z,61.14
2018-04-13T05:35:31.960Z,61.04
2018-04-13T05:37:25.355Z,61.94
2018-04-13T05:38:25.359Z,60.94
2018-04-13T05:40:18.828Z,61.14
2018-04-13T05:41:18.795Z,60.75
2018-04-13T05:43:12.204Z,60.75
2018-04-13T05:44:12.160Z,61.71
2018-04-13T05:46:05.584Z,61.23
2018-04-13T05:47:05.564Z,61.91
2018-04-13T05:48:58.999Z,61.52
2018-04-13T05:49:58.954Z,61.61
2018-04-13T05:51:52.349Z,63.76
2018-04-13T05:52:52.360Z,64.15
2018-04-13T05:53:52.357Z,64.37
2018-04-13T05:54:52.365Z,65.05
2018-04-13T05:55:52.367Z,66.88
2018-04-13T05:56:52.372Z,68.22
2018-04-13T05:57:52.378Z,68.22
2018-04-13T05:58:52.383Z,69.47
2018-04-13T05:59:52.387Z,69.85
2018-04-13T06:00:52.392Z,70.05
2018-04-13T06:01:52.397Z,71.01
2018-04-13T06:02:52.405Z,73.55
2018-04-13T06:03:52.409Z,74.51
2018-04-13T06:04:52.414Z,80.52
2018-04-13T06:05:52.421Z,80.23
2018-04-13T06:06:52.427Z,78.79
2018-04-13T06:07:52.433Z,78.21
2018-04-13T06:08:52.442Z,76.25
2018-04-13T06:09:52.448Z,75.61
2018-04-13T06:10:52.458Z,75.99
2018-04-13T06:13:03.866Z,61.10
2018-04-13T06:14:03.825Z,58.79
2018-04-13T06:15:57.219Z,59.05
2018-04-13T06:16:57.220Z,59.50
2018-04-13T06:18:50.698Z,60.27
2018-04-13T06:19:50.616Z,60.46
2018-04-13T06:21:45.014Z,61.40
2018-04-13T06:22:45.016Z,61.68
2018-04-13T06:24:38.455Z,61.68
2018-04-13T06:25:38.409Z,62.52
2018-04-13T06:27:31.803Z,62.81
2018-04-13T06:28:31.803Z,63.38
2018-04-13T06:30:25.242Z,64.05
2018-04-13T06:31:25.200Z,63.96
2018-04-13T06:33:18.637Z,64.34
2018-04-13T06:34:18.589Z,64.05
2018-04-13T06:36:11.996Z,64.25
2018-04-13T06:37:12.045Z,64.34
2018-04-13T06:39:05.435Z,64.25
2018-04-13T06:40:05.389Z,64.34
2018-04-13T06:41:05.392Z,64.43
2018-04-13T06:42:05.396Z,63.86
2018-04-13T06:43:05.400Z,64.05
2018-04-13T06:44:05.401Z,63.86
2018-04-13T06:45:05.407Z,64.15
2018-04-13T06:46:05.437Z,64.53
2018-04-13T06:47:05.412Z,64.05
2018-04-13T06:48:05.416Z,63.86
2018-04-13T06:49:05.421Z,63.38
2018-04-13T06:50:05.425Z,63.67
2018-04-13T06:51:05.427Z,63.67
2018-04-13T06:52:05.430Z,63.38
2018-04-13T06:53:05.447Z,63.28
2018-04-13T06:54:05.438Z,63.57
2018-04-13T06:55:05.445Z,63.48
2018-04-13T06:56:05.466Z,63.48
2018-04-13T06:57:05.450Z,63.38
2018-04-13T06:58:05.495Z,63.48
2018-04-13T06:59:05.457Z,63.67
2018-04-13T07:00:05.461Z,63.51
2018-04-13T07:01:05.463Z,63.57
2018-04-13T07:02:05.466Z,63.38
2018-04-13T07:03:05.470Z,63.48
2018-04-13T07:04:05.480Z,63.48
2018-04-13T07:05:05.476Z,63.38
2018-04-13T07:06:05.483Z,63.38
2018-04-13T07:07:05.485Z,63.57
2018-04-13T07:08:05.487Z,63.09
2018-04-13T07:09:05.492Z,63.09
2018-04-13T07:10:05.495Z,62.99
2018-04-13T07:11:05.499Z,63.09
2018-04-13T07:12:05.501Z,63.02
2018-04-13T07:13:05.544Z,62.84
2018-04-13T07:14:05.509Z,62.55
2018-04-13T07:15:05.514Z,62.81
2018-04-13T07:16:05.526Z,62.61
2018-04-13T07:17:05.531Z,62.64
2018-04-13T07:18:05.530Z,62.45
2018-04-13T07:19:05.530Z,62.07
2018-04-13T07:20:05.533Z,61.87
2018-04-13T07:21:05.540Z,61.87
2018-04-13T07:22:05.541Z,62.35
2018-04-13T07:23:05.543Z,61.97
2018-04-13T07:24:05.547Z,62.35
2018-04-13T07:25:05.552Z,62.35
2018-04-13T07:26:05.562Z,61.97
2018-04-13T07:27:05.557Z,62.26
2018-04-13T07:28:05.562Z,62.26
2018-04-13T07:29:05.564Z,61.87
2018-04-13T07:30:05.603Z,61.68
2018-04-13T07:31:05.572Z,61.78
2018-04-13T07:32:06.091Z,61.97
2018-04-13T07:33:05.579Z,61.78
2018-04-13T07:34:06.180Z,61.68
2018-04-13T07:35:05.588Z,61.97
2018-04-13T07:36:05.591Z,61.40
2018-04-13T07:37:05.594Z,61.78
2018-04-13T07:38:05.602Z,61.78
2018-04-13T07:39:05.602Z,61.78
2018-04-13T07:40:05.606Z,61.78
2018-04-13T07:41:05.610Z,62.07
2018-04-13T07:42:05.639Z,61.68
2018-04-13T07:43:05.618Z,61.87
2018-04-13T07:44:05.622Z,61.97
2018-04-13T07:45:05.639Z,61.78
2018-04-13T07:46:05.629Z,61.68
2018-04-13T07:47:05.632Z,62.07
2018-04-13T07:48:05.635Z,61.49
2018-04-13T07:49:05.642Z,61.49
2018-04-13T07:50:05.645Z,61.58
2018-04-13T07:51:05.645Z,61.87
2018-04-13T07:52:05.654Z,61.68
2018-04-13T07:53:05.655Z,62.45
2018-04-13T07:54:05.661Z,61.87
2018-04-13T07:55:05.663Z,61.87
2018-04-13T07:56:05.666Z,62.45
2018-04-13T07:57:05.673Z,62.35
2018-04-13T07:58:05.674Z,62.45
2018-04-13T07:59:05.679Z,62.07
2018-04-13T08:00:05.683Z,61.58
2018-04-13T08:01:06.094Z,61.78
2018-04-13T08:02:05.691Z,61.78
2018-04-13T08:03:05.705Z,61.87
2018-04-13T08:04:05.702Z,61.97
2018-04-13T08:05:05.702Z,62.26
2018-04-13T08:06:05.705Z,61.78
2018-04-13T08:07:05.712Z,61.68
2018-04-13T08:08:05.715Z,61.87
2018-04-13T08:09:05.722Z,61.68
2018-04-13T08:10:05.723Z,61.87
2018-04-13T08:11:05.726Z,61.87
2018-04-13T08:12:05.734Z,61.58
2018-04-13T08:13:05.735Z,61.68
2018-04-13T08:14:05.737Z,61.30
2018-04-13T08:15:05.740Z,61.40
2018-04-13T08:16:05.743Z,61.20
2018-04-13T08:17:05.749Z,60.91
2018-04-13T08:18:05.755Z,61.01
2018-04-13T08:19:05.757Z,60.82
2018-04-13T08:20:05.759Z,60.91
2018-04-13T08:21:05.763Z,61.20
2018-04-13T08:22:05.772Z,60.63
2018-04-13T08:23:05.771Z,60.63
2018-04-13T08:24:05.774Z,60.91
2018-04-13T08:25:05.781Z,61.01
2018-04-13T08:26:05.782Z,61.20
2018-04-13T08:27:05.786Z,61.11
2018-04-13T08:28:05.792Z,60.63
2018-04-13T08:29:05.795Z,60.72
2018-04-13T08:30:05.799Z,60.34
2018-04-13T08:31:05.802Z,60.43
2018-04-13T08:32:05.805Z,60.53
2018-04-13T08:33:05.810Z,60.63
2018-04-13T08:34:05.814Z,60.72
2018-04-13T08:35:05.816Z,60.72
2018-04-13T08:36:05.825Z,60.43
2018-04-13T08:37:05.825Z,60.34
2018-04-13T08:38:05.831Z,60.82
2018-04-13T08:39:05.833Z,60.24
2018-04-13T08:40:05.837Z,60.34
2018-04-13T08:41:05.849Z,60.43
2018-04-13T08:42:05.846Z,60.34
2018-04-13T08:43:05.870Z,60.24
2018-04-13T08:44:05.853Z,60.14
2018-04-13T08:45:05.856Z,59.86
2018-04-13T08:46:05.862Z,60.05
2018-04-13T08:47:05.864Z,60.05
2018-04-13T08:48:05.887Z,60.05
2018-04-13T08:49:05.982Z,60.05
2018-04-13T08:50:05.878Z,60.24
2018-04-13T08:51:05.882Z,59.76
2018-04-13T08:52:05.884Z,59.86
2018-04-13T08:53:05.912Z,60.24
2018-04-13T08:54:05.903Z,59.86
2018-04-13T08:55:05.962Z,59.95
2018-04-13T08:56:05.940Z,60.24
2018-04-13T08:57:05.943Z,59.95
2018-04-13T08:58:05.909Z,59.86
2018-04-13T08:59:05.930Z,60.14
2018-04-13T09:00:05.918Z,59.86
2018-04-13T09:01:05.921Z,59.76
2018-04-13T09:02:05.926Z,59.86
2018-04-13T09:03:05.927Z,59.86
2018-04-13T09:04:05.933Z,59.95
2018-04-13T09:05:05.938Z,59.95
2018-04-13T09:07:54.306Z,60.34
2018-04-13T09:08:54.248Z,60.43
2018-04-13T09:10:47.687Z,59.95
2018-04-13T09:16:46.908Z,59.76
2018-04-13T09:17:46.855Z,59.95
2018-04-13T09:19:40.250Z,59.86
2018-04-13T09:20:40.263Z,59.89
2018-04-13T11:58:52.932Z,53.64
2018-04-13T11:59:52.876Z,52.97
2018-04-13T13:35:41.386Z,55.08
2018-04-13T13:36:41.317Z,55.18
2018-04-13T13:53:12.563Z,55.56
2018-04-13T13:54:12.509Z,54.91
2018-04-13T13:56:05.899Z,66.10
2018-04-13T13:57:05.897Z,71.88
2018-04-13T13:58:59.398Z,78.75
2018-04-13T13:59:59.285Z,79.61
2018-04-13T14:01:52.677Z,79.61
2018-04-13T14:02:52.680Z,82.83
2018-04-13T14:16:51.805Z,55.76
2018-04-13T14:17:51.732Z,54.41
2018-04-13T14:19:45.214Z,54.50
2018-04-13T14:20:45.673Z,54.41
2018-04-13T14:22:38.499Z,55.08
2018-04-13T14:23:38.508Z,55.08
2018-04-13T14:25:31.918Z,54.79
2018-04-13T14:26:31.869Z,55.18
2018-04-13T14:28:26.310Z,54.89
2018-04-13T14:29:26.318Z,55.08
2018-04-13T14:31:19.739Z,55.37
2018-04-13T14:32:19.735Z,55.27
2018-04-13T14:34:13.223Z,55.27
2018-04-13T14:35:13.129Z,55.18
2018-04-13T14:37:07.541Z,55.37
2018-04-13T14:38:07.546Z,55.46
2018-04-13T14:40:01.123Z,55.37
2018-04-13T14:41:00.926Z,55.37
2018-04-13T14:42:54.398Z,55.66
2018-04-13T14:43:55.973Z,55.63
2018-04-13T14:45:48.800Z,55.63
2018-04-13T14:46:48.746Z,55.73
2018-04-13T14:48:43.572Z,55.34
2018-04-13T14:49:43.201Z,55.73
2018-04-13T14:51:36.666Z,55.63
2018-04-13T14:52:36.595Z,55.63
2018-04-13T18:11:49.201Z,59.92
2018-04-13T18:12:49.147Z,59.16
2018-04-13T18:14:46.088Z,60.05
2018-04-13T18:15:43.565Z,59.47
2018-04-13T18:17:36.955Z,60.05
2018-04-13T18:18:36.911Z,60.24
2018-04-13T18:20:30.361Z,60.46
2018-04-13T18:21:30.314Z,60.94
2018-04-13T18:23:23.704Z,69.79
2018-04-13T18:24:23.756Z,70.98
2018-04-13T18:26:18.147Z,77.13
2018-04-13T18:27:18.102Z,77.71
2018-04-13T18:29:11.498Z,80.35
2018-04-13T18:30:11.501Z,80.73
2018-04-13T18:32:04.945Z,82.75
2018-04-13T18:33:04.902Z,83.14
2018-04-13T18:34:58.300Z,83.91
2018-04-13T18:35:58.302Z,83.14
2018-04-13T18:37:51.747Z,82.85
2018-04-13T18:38:51.706Z,82.17
2018-04-13T18:40:45.147Z,84.72
2018-04-13T18:41:45.107Z,84.72
2018-04-13T18:43:38.503Z,87.90
2018-04-13T19:01:26.457Z,61.01
2018-04-13T19:27:07.588Z,61.43
